Time;durP1;ratioP1;P1;durP2;ratioP2;P2;SDS_P1;SDS_P2;PMS_P1;PMS_P2;Temp;Humidity;BMP_temperature;BMP_pressure;BME280_temperature;BME280_humidity;BME280_pressure;Samples;Min_cycle;Max_cycle;Signal;HPM_P1;HPM_P2
2023/09/12 00:01:54;;;;;;;6.83;4.60;;;20.70;87.80;;;;;;936050;149;27786;-75
2023/09/12 00:04:21;;;;;;;6.72;5.62;;;20.70;88.40;;;;;;934018;149;27335;-75
2023/09/12 00:06:47;;;;;;;7.60;4.70;;;20.60;88.80;;;;;;935376;149;27410;-74
2023/09/12 00:09:14;;;;;;;9.35;5.53;;;20.70;89.30;;;;;;936323;149;27400;-75
2023/09/12 00:11:40;;;;;;;8.58;5.45;;;20.60;89.90;;;;;;934375;149;27350;-74
2023/09/12 00:14:08;;;;;;;7.00;5.20;;;20.60;90.20;;;;;;934257;149;27320;-75
2023/09/12 00:16:33;;;;;;;7.25;5.25;;;20.60;90.40;;;;;;936411;149;27422;-74
2023/09/12 00:19:00;;;;;;;10.95;6.00;;;20.50;90.70;;;;;;934605;149;27359;-75
2023/09/12 00:21:27;;;;;;;7.75;5.70;;;20.50;91.00;;;;;;936600;150;27342;-75
2023/09/12 00:23:53;;;;;;;7.50;5.47;;;20.50;91.40;;;;;;935686;149;27323;-75
2023/09/12 00:26:20;;;;;;;11.90;6.12;;;20.50;91.60;;;;;;936002;151;27640;-74
2023/09/12 00:28:46;;;;;;;8.55;5.45;;;20.40;91.90;;;;;;935156;149;27367;-75
2023/09/12 00:31:13;;;;;;;5.67;5.17;;;20.40;92.10;;;;;;920850;151;27458;-75
2023/09/12 00:33:40;;;;;;;9.65;5.28;;;20.40;92.30;;;;;;918797;152;27360;-74
2023/09/12 00:36:06;;;;;;;8.45;5.05;;;20.40;92.50;;;;;;902719;155;27361;-75
2023/09/12 00:38:33;;;;;;;6.55;5.28;;;20.30;92.80;;;;;;902275;155;27411;-75
2023/09/12 00:40:59;;;;;;;6.45;4.65;;;20.30;93.10;;;;;;934887;149;27412;-75
2023/09/12 00:43:26;;;;;;;6.75;5.70;;;20.30;93.30;;;;;;933468;149;27334;-75
2023/09/12 00:45:53;;;;;;;9.05;5.17;;;20.30;93.50;;;;;;934758;149;27436;-74
2023/09/12 00:48:19;;;;;;;6.30;5.33;;;20.20;93.60;;;;;;934530;149;27344;-75
2023/09/12 00:50:46;;;;;;;12.28;5.33;;;20.20;93.80;;;;;;936338;148;27461;-75
2023/09/12 00:53:12;;;;;;;5.80;5.28;;;20.20;94.00;;;;;;934629;149;27330;-75
2023/09/12 00:55:39;;;;;;;7.95;6.05;;;20.10;94.10;;;;;;933101;150;27412;-74
2023/09/12 00:58:07;;;;;;;9.28;5.50;;;20.10;94.50;;;;;;933737;149;27426;-74
2023/09/12 01:00:32;;;;;;;9.43;6.28;;;20.10;94.80;;;;;;940155;149;27408;-75
2023/09/12 01:02:59;;;;;;;8.85;5.53;;;20.00;94.90;;;;;;940947;149;27411;-75
2023/09/12 01:05:25;;;;;;;9.70;6.28;;;20.00;95.10;;;;;;935783;149;27385;-74
2023/09/12 01:07:52;;;;;;;9.68;5.75;;;20.00;95.50;;;;;;935492;148;27423;-74
2023/09/12 01:10:18;;;;;;;9.40;5.87;;;19.90;95.70;;;;;;934771;148;27418;-74
2023/09/12 01:12:45;;;;;;;9.23;6.12;;;19.90;96.10;;;;;;933804;149;27446;-73
2023/09/12 01:15:14;;;;;;;8.33;5.42;;;19.90;96.30;;;;;;934648;149;27500;-74
2023/09/12 01:17:38;;;;;;;8.13;5.60;;;19.90;96.70;;;;;;954144;147;27215;-73
2023/09/12 01:20:05;;;;;;;7.50;5.55;;;19.80;96.90;;;;;;955755;146;27713;-74
2023/09/12 01:22:50;;;;;;;9.13;6.30;;;19.80;97.10;;;;;;949195;147;27358;-74
2023/09/12 01:25:50;;;;;;;7.00;5.22;;;19.80;97.40;;;;;;950219;147;27478;-74
2023/09/12 01:28:17;;;;;;;8.53;4.72;;;19.80;97.30;;;;;;932471;149;27977;-73
2023/09/12 01:30:43;;;;;;;10.05;5.60;;;19.70;97.50;;;;;;949446;147;27680;-74
2023/09/12 01:33:10;;;;;;;7.28;5.33;;;19.70;98.10;;;;;;949458;147;27326;-73
2023/09/12 01:35:36;;;;;;;7.72;5.58;;;19.70;98.60;;;;;;951088;147;27328;-73
2023/09/12 01:38:03;;;;;;;8.83;6.37;;;19.70;98.90;;;;;;935181;149;27336;-74
2023/09/12 01:40:44;;;;;;;8.83;5.25;;;19.60;99.30;;;;;;935970;149;27296;-74
2023/09/12 01:43:11;;;;;;;7.55;5.05;;;19.60;99.50;;;;;;941662;147;27322;-74
2023/09/12 01:45:37;;;;;;;6.83;5.12;;;19.60;99.60;;;;;;950120;146;27347;-73
2023/09/12 01:48:04;;;;;;;6.72;5.42;;;19.60;99.70;;;;;;952244;147;27342;-74
2023/09/12 01:50:31;;;;;;;9.08;5.25;;;19.60;99.80;;;;;;934377;149;27368;-74
2023/09/12 01:52:57;;;;;;;6.60;5.20;;;19.60;99.90;;;;;;954262;146;27251;-74
2023/09/12 01:55:24;;;;;;;6.85;5.37;;;19.60;99.90;;;;;;949963;146;27465;-73
2023/09/12 01:57:50;;;;;;;9.23;5.97;;;19.60;99.90;;;;;;938038;149;27357;-73
2023/09/12 02:00:17;;;;;;;9.90;5.60;;;19.50;99.90;;;;;;955197;146;27364;-73
2023/09/12 02:02:44;;;;;;;11.22;5.50;;;19.50;99.90;;;;;;956124;146;27325;-74
2023/09/12 02:05:18;;;;;;;9.60;5.87;;;19.50;99.90;;;;;;951806;146;27453;-74
2023/09/12 02:07:43;;;;;;;7.10;5.53;;;19.40;99.90;;;;;;950977;147;27451;-74
2023/09/12 02:10:12;;;;;;;9.10;5.30;;;19.40;99.90;;;;;;951313;147;27332;-73
2023/09/12 02:12:36;;;;;;;9.03;5.25;;;19.30;99.90;;;;;;949564;147;27336;-74
2023/09/12 02:15:02;;;;;;;6.87;5.75;;;19.40;99.90;;;;;;951642;147;27323;-74
2023/09/12 02:17:29;;;;;;;8.80;7.30;;;19.30;99.90;;;;;;939613;148;27416;-74
2023/09/12 02:19:55;;;;;;;7.87;6.22;;;19.30;99.90;;;;;;934847;151;27330;-74
2023/09/12 02:22:22;;;;;;;7.55;6.65;;;19.30;99.90;;;;;;950480;148;27385;-74
2023/09/12 02:24:49;;;;;;;7.72;6.35;;;19.30;99.90;;;;;;950377;146;27336;-74
2023/09/12 02:27:15;;;;;;;8.23;6.03;;;19.30;99.90;;;;;;947443;147;27424;-74
2023/09/12 02:29:42;;;;;;;6.70;5.97;;;19.30;99.90;;;;;;952258;146;27356;-74
2023/09/12 02:32:08;;;;;;;7.00;6.05;;;19.20;99.90;;;;;;955395;146;27702;-74
2023/09/12 02:34:35;;;;;;;6.17;5.58;;;19.20;99.90;;;;;;938902;148;27268;-74
2023/09/12 02:37:02;;;;;;;6.60;5.75;;;19.20;99.90;;;;;;954543;146;27305;-74
2023/09/12 02:39:28;;;;;;;8.93;5.37;;;19.20;99.90;;;;;;942098;149;27391;-74
2023/09/12 02:41:55;;;;;;;10.85;6.62;;;19.20;99.90;;;;;;939756;149;27357;-74
2023/09/12 02:44:21;;;;;;;8.45;5.83;;;19.10;99.90;;;;;;937972;149;27341;-74
2023/09/12 02:46:48;;;;;;;9.88;6.20;;;19.20;99.90;;;;;;938933;149;27326;-74
2023/09/12 02:49:15;;;;;;;9.90;5.90;;;19.20;99.90;;;;;;954776;146;27434;-74
2023/09/12 02:51:41;;;;;;;7.35;5.62;;;19.20;99.90;;;;;;933899;150;28304;-74
2023/09/12 02:54:08;;;;;;;9.15;5.87;;;19.10;99.90;;;;;;936599;147;27425;-74
2023/09/12 02:56:34;;;;;;;7.75;5.90;;;19.10;99.90;;;;;;944294;146;27446;-74
2023/09/12 02:59:01;;;;;;;7.55;5.58;;;19.10;99.90;;;;;;949835;146;27276;-74
2023/09/12 03:01:28;;;;;;;9.93;5.70;;;19.10;99.90;;;;;;936182;149;27440;-74
2023/09/12 03:03:54;;;;;;;9.58;5.97;;;19.10;99.90;;;;;;920455;150;27346;-74
2023/09/12 03:06:21;;;;;;;6.87;5.28;;;19.10;99.90;;;;;;938145;149;27345;-73
2023/09/12 03:08:50;;;;;;;8.15;6.10;;;19.00;99.90;;;;;;936457;149;27772;-74
2023/09/12 03:11:17;;;;;;;9.85;6.95;;;19.00;99.90;;;;;;949799;147;27343;-74
2023/09/12 03:13:43;;;;;;;6.50;5.37;;;19.00;99.90;;;;;;934602;149;27290;-73
2023/09/12 03:16:10;;;;;;;8.38;5.70;;;19.00;99.90;;;;;;934513;151;27393;-74
2023/09/12 03:18:36;;;;;;;7.97;5.70;;;19.00;99.90;;;;;;934588;149;27359;-74
2023/09/12 03:21:03;;;;;;;7.30;5.72;;;18.90;99.90;;;;;;932569;150;27397;-74
2023/09/12 03:23:30;;;;;;;8.33;6.28;;;18.90;99.90;;;;;;934135;149;27408;-74
2023/09/12 03:25:56;;;;;;;8.10;6.53;;;18.90;99.90;;;;;;935483;149;27329;-74
2023/09/12 03:28:23;;;;;;;8.05;6.83;;;19.00;99.90;;;;;;932516;149;27345;-75
2023/09/12 03:30:49;;;;;;;8.73;7.08;;;18.90;99.90;;;;;;938373;149;27356;-74
2023/09/12 03:33:16;;;;;;;8.58;7.35;;;18.90;99.90;;;;;;922784;150;27378;-74
2023/09/12 03:35:43;;;;;;;7.25;6.58;;;18.90;99.90;;;;;;933994;149;27867;-74
2023/09/12 03:38:10;;;;;;;7.42;6.60;;;18.90;99.90;;;;;;942760;147;27404;-74
2023/09/12 03:40:36;;;;;;;7.92;6.35;;;18.90;99.90;;;;;;944378;147;27316;-74
2023/09/12 03:43:02;;;;;;;6.95;5.80;;;18.90;99.90;;;;;;945098;146;27907;-74
2023/09/12 03:45:29;;;;;;;7.47;5.95;;;18.90;99.90;;;;;;930007;151;27458;-74
2023/09/12 03:47:56;;;;;;;6.78;6.08;;;18.90;99.90;;;;;;933222;150;27323;-74
2023/09/12 03:50:22;;;;;;;10.58;7.80;;;18.90;99.90;;;;;;928628;150;27293;-74
2023/09/12 03:52:49;;;;;;;13.60;7.25;;;18.90;99.90;;;;;;955312;146;27424;-74
2023/09/12 03:55:15;;;;;;;10.10;6.72;;;18.90;99.90;;;;;;928637;150;27307;-75
2023/09/12 03:57:42;;;;;;;7.55;6.42;;;18.90;99.90;;;;;;955246;146;27391;-75
2023/09/12 04:00:08;;;;;;;7.62;6.28;;;18.80;99.90;;;;;;938221;149;27420;-74
2023/09/12 04:02:35;;;;;;;6.92;6.15;;;18.80;99.90;;;;;;958628;146;27408;-74
2023/09/12 04:05:02;;;;;;;9.10;5.92;;;18.80;99.90;;;;;;951552;147;28847;-74
2023/09/12 04:07:28;;;;;;;8.38;6.05;;;18.80;99.90;;;;;;935821;150;27319;-75
2023/09/12 04:09:55;;;;;;;7.37;6.47;;;18.80;99.90;;;;;;954196;146;27678;-74
2023/09/12 04:12:21;;;;;;;6.78;6.15;;;18.80;99.90;;;;;;934088;149;27366;-74
2023/09/12 04:14:48;;;;;;;8.73;7.83;;;18.80;99.90;;;;;;934127;149;28418;-74
2023/09/12 04:17:15;;;;;;;8.10;5.80;;;18.70;99.90;;;;;;931393;150;27335;-74
2023/09/12 04:19:41;;;;;;;11.40;6.65;;;18.70;99.90;;;;;;948219;147;27404;-74
2023/09/12 04:22:08;;;;;;;10.03;7.12;;;18.70;99.90;;;;;;945105;147;27362;-75
2023/09/12 04:24:34;;;;;;;7.58;5.95;;;18.70;99.90;;;;;;949594;146;27767;-75
2023/09/12 04:27:01;;;;;;;7.42;6.65;;;18.70;99.90;;;;;;937260;149;27419;-74
2023/09/12 04:29:28;;;;;;;8.13;7.10;;;18.70;99.90;;;;;;948887;146;27295;-74
2023/09/12 04:31:59;;;;;;;6.55;5.80;;;18.70;99.90;;;;;;936828;149;27333;-75
2023/09/12 04:34:21;;;;;;;6.78;6.10;;;18.70;99.90;;;;;;949960;146;27426;-74
2023/09/12 04:36:47;;;;;;;9.25;6.10;;;18.70;99.90;;;;;;948941;146;27296;-74
2023/09/12 04:39:14;;;;;;;7.50;5.67;;;18.80;99.90;;;;;;937672;149;27352;-74
2023/09/12 04:41:41;;;;;;;6.33;5.70;;;18.80;99.90;;;;;;932976;149;27384;-74
2023/09/12 04:44:07;;;;;;;9.33;6.28;;;18.80;99.90;;;;;;919246;150;27461;-74
2023/09/12 04:46:34;;;;;;;7.55;6.40;;;18.90;99.90;;;;;;906348;154;27526;-74
2023/09/12 04:49:00;;;;;;;10.00;6.37;;;18.90;99.90;;;;;;922174;151;27245;-74
2023/09/12 04:51:27;;;;;;;6.65;6.05;;;18.90;99.90;;;;;;922820;151;27738;-74
2023/09/12 04:53:53;;;;;;;8.93;6.03;;;18.90;99.90;;;;;;923706;151;27357;-74
2023/09/12 04:56:20;;;;;;;11.05;6.72;;;18.90;99.90;;;;;;922915;151;27952;-74
2023/09/12 04:58:47;;;;;;;7.55;6.00;;;19.00;99.90;;;;;;923219;151;27318;-74
2023/09/12 05:01:14;;;;;;;9.00;6.30;;;19.00;99.90;;;;;;919876;151;27391;-74
2023/09/12 05:03:40;;;;;;;7.00;6.33;;;19.00;99.90;;;;;;924223;151;27348;-74
2023/09/12 05:06:06;;;;;;;8.03;6.72;;;19.10;99.90;;;;;;920581;152;27370;-74
2023/09/12 05:08:33;;;;;;;10.63;6.58;;;19.10;99.90;;;;;;922467;152;27504;-74
2023/09/12 05:11:00;;;;;;;9.70;6.12;;;19.10;99.90;;;;;;918189;151;27349;-74
2023/09/12 05:13:26;;;;;;;9.95;6.80;;;19.20;99.90;;;;;;924345;150;27321;-74
2023/09/12 05:15:53;;;;;;;9.65;6.28;;;19.20;99.90;;;;;;921327;152;27853;-74
2023/09/12 05:18:19;;;;;;;8.75;5.58;;;19.30;99.90;;;;;;919343;152;27370;-74
2023/09/12 05:20:46;;;;;;;8.38;6.72;;;19.30;99.90;;;;;;922280;150;27660;-74
2023/09/12 05:23:13;;;;;;;8.20;6.60;;;19.30;99.90;;;;;;924901;150;27281;-74
2023/09/12 05:25:39;;;;;;;9.88;6.37;;;19.40;99.90;;;;;;921830;151;28060;-75
2023/09/12 05:28:06;;;;;;;7.33;5.95;;;19.50;99.90;;;;;;918684;152;27469;-74
2023/09/12 05:30:32;;;;;;;11.63;6.55;;;19.50;99.90;;;;;;912865;153;27358;-74
2023/09/12 05:32:59;;;;;;;8.23;5.97;;;19.60;99.90;;;;;;919531;151;27341;-73
2023/09/12 05:35:25;;;;;;;8.90;6.00;;;19.70;99.90;;;;;;924532;152;27865;-74
2023/09/12 05:37:52;;;;;;;9.88;6.03;;;19.70;99.90;;;;;;923718;151;27391;-74
2023/09/12 05:40:19;;;;;;;10.32;5.45;;;19.80;99.90;;;;;;922317;152;27369;-74
2023/09/12 05:42:45;;;;;;;7.45;6.05;;;20.00;99.90;;;;;;921943;152;27289;-74
2023/09/12 05:45:12;;;;;;;7.67;5.92;;;20.10;99.90;;;;;;937450;149;27418;-74
2023/09/12 05:47:38;;;;;;;9.35;5.97;;;20.20;99.90;;;;;;939576;149;27397;-75
2023/09/12 05:50:06;;;;;;;12.65;6.75;;;20.30;99.90;;;;;;941688;149;27364;-75
2023/09/12 05:52:32;;;;;;;6.30;5.65;;;20.40;99.90;;;;;;941892;149;27303;-75
2023/09/12 05:54:58;;;;;;;7.75;5.97;;;20.50;99.90;;;;;;946438;148;27369;-74
2023/09/12 05:57:25;;;;;;;7.40;6.45;;;20.60;99.90;;;;;;951590;148;27316;-74
2023/09/12 05:59:51;;;;;;;9.25;5.80;;;20.70;99.90;;;;;;945449;147;27336;-75
2023/09/12 06:02:18;;;;;;;8.33;5.60;;;20.70;99.90;;;;;;946741;146;27387;-75
2023/09/12 06:04:45;;;;;;;7.15;5.40;;;20.80;99.90;;;;;;945913;146;27482;-75
2023/09/12 06:07:11;;;;;;;10.05;5.53;;;20.90;99.90;;;;;;945401;146;27252;-76
2023/09/12 06:09:38;;;;;;;13.43;6.22;;;20.90;99.90;;;;;;946054;146;27848;-75
2023/09/12 06:12:04;;;;;;;8.28;6.25;;;21.00;99.90;;;;;;947963;147;27451;-77
2023/09/12 06:14:31;;;;;;;9.90;5.33;;;21.10;99.90;;;;;;934160;149;27349;-76
2023/09/12 06:16:58;;;;;;;8.83;5.90;;;21.20;99.90;;;;;;951983;147;27287;-75
2023/09/12 06:19:24;;;;;;;12.30;6.30;;;21.30;99.90;;;;;;934891;149;28678;-74
2023/09/12 06:21:51;;;;;;;6.95;5.62;;;21.40;99.90;;;;;;934534;150;27476;-76
2023/09/12 06:24:17;;;;;;;12.85;7.08;;;21.50;99.90;;;;;;951111;147;27774;-77
2023/09/12 06:26:44;;;;;;;6.10;5.37;;;21.50;99.90;;;;;;950175;147;27309;-77
2023/09/12 06:29:11;;;;;;;8.08;5.65;;;21.70;99.90;;;;;;933449;149;27321;-76
2023/09/12 06:31:37;;;;;;;6.70;5.42;;;21.80;99.90;;;;;;943295;147;27333;-77
2023/09/12 06:34:04;;;;;;;6.40;5.33;;;22.00;99.90;;;;;;932162;149;27304;-76
2023/09/12 06:36:30;;;;;;;10.20;5.50;;;22.10;99.90;;;;;;947786;148;27328;-76
2023/09/12 06:38:57;;;;;;;8.50;5.25;;;22.30;99.90;;;;;;949066;148;27860;-77
2023/09/12 06:41:23;;;;;;;6.67;5.65;;;22.40;99.90;;;;;;948916;150;27366;-77
2023/09/12 06:43:50;;;;;;;6.35;5.58;;;22.50;99.90;;;;;;949188;148;27342;-76
2023/09/12 06:46:19;;;;;;;8.10;5.97;;;22.60;99.90;;;;;;937667;149;27383;-77
2023/09/12 06:48:46;;;;;;;8.60;5.33;;;22.70;99.90;;;;;;933921;152;27393;-75
2023/09/12 06:51:12;;;;;;;8.90;5.40;;;22.80;99.90;;;;;;933415;151;27263;-77
2023/09/12 06:53:39;;;;;;;9.13;6.08;;;22.80;99.90;;;;;;939209;149;27342;-77
2023/09/12 06:56:05;;;;;;;7.10;6.00;;;22.90;99.90;;;;;;939174;149;27346;-74
2023/09/12 06:58:32;;;;;;;6.85;5.72;;;23.00;99.90;;;;;;931366;150;27311;-75
2023/09/12 07:01:05;;;;;;;6.65;4.92;;;23.10;99.90;;;;;;927207;152;27359;-75
2023/09/12 07:03:31;;;;;;;9.05;5.97;;;23.20;99.90;;;;;;917896;151;27341;-75
2023/09/12 07:05:58;;;;;;;7.17;5.10;;;23.40;99.90;;;;;;947338;149;27298;-75
2023/09/12 07:08:24;;;;;;;6.90;5.45;;;23.50;99.90;;;;;;947415;149;27436;-74
2023/09/12 07:10:54;;;;;;;8.35;5.80;;;23.80;99.90;;;;;;923671;152;27386;-74
2023/09/12 07:13:18;;;;;;;6.55;4.67;;;24.10;99.90;;;;;;932528;151;27294;-75
2023/09/12 07:15:45;;;;;;;6.20;4.85;;;24.70;99.90;;;;;;931299;151;27291;-74
2023/09/12 07:18:11;;;;;;;7.25;5.40;;;25.40;99.90;;;;;;930174;150;27335;-75
2023/09/12 07:20:37;;;;;;;7.70;5.60;;;26.30;99.90;;;;;;922228;152;27420;-75
2023/09/12 07:23:04;;;;;;;8.03;5.22;;;27.20;99.90;;;;;;933651;152;27287;-75
2023/09/12 07:25:30;;;;;;;6.92;4.90;;;28.10;97.90;;;;;;936602;150;27320;-75
2023/09/12 07:27:57;;;;;;;5.47;3.98;;;28.90;94.10;;;;;;934688;152;27355;-75
2023/09/12 07:30:24;;;;;;;5.60;4.75;;;29.60;90.70;;;;;;946749;149;27306;-75
2023/09/12 07:32:51;;;;;;;4.85;4.03;;;30.30;86.50;;;;;;946109;148;28861;-75
2023/09/12 07:35:17;;;;;;;8.13;4.53;;;30.90;82.90;;;;;;933065;152;27362;-75
2023/09/12 07:37:44;;;;;;;6.58;4.70;;;31.40;79.30;;;;;;940510;148;27349;-75
2023/09/12 07:40:10;;;;;;;8.83;4.50;;;31.90;76.70;;;;;;933274;151;27304;-75
2023/09/12 07:42:37;;;;;;;8.35;5.03;;;32.40;74.20;;;;;;930367;151;27455;-75
2023/09/12 07:45:03;;;;;;;6.67;4.35;;;32.70;70.60;;;;;;931792;151;26262;-75
2023/09/12 07:47:30;;;;;;;7.30;4.22;;;33.00;69.80;;;;;;930057;151;27310;-75
2023/09/12 07:49:57;;;;;;;6.90;4.08;;;33.40;67.90;;;;;;926199;151;26228;-75
2023/09/12 07:52:23;;;;;;;7.42;4.30;;;33.60;67.00;;;;;;947538;149;27426;-75
2023/09/12 07:54:52;;;;;;;5.80;3.65;;;34.00;66.30;;;;;;927879;150;27354;-75
2023/09/12 07:57:16;;;;;;;6.03;3.85;;;34.50;65.80;;;;;;926873;152;26234;-75
2023/09/12 07:59:43;;;;;;;7.62;4.30;;;35.00;65.00;;;;;;928937;151;26198;-75
2023/09/12 08:02:12;;;;;;;6.00;3.85;;;35.50;63.80;;;;;;930753;151;26247;-76
2023/09/12 08:04:37;;;;;;;4.80;3.90;;;36.00;62.40;;;;;;935905;149;26264;-76
2023/09/12 08:07:03;;;;;;;4.70;3.70;;;36.50;61.00;;;;;;940974;149;26260;-76
2023/09/12 08:09:29;;;;;;;4.65;4.10;;;37.00;59.70;;;;;;947854;149;27360;-76
2023/09/12 08:11:56;;;;;;;5.87;3.40;;;37.60;59.00;;;;;;936940;149;26286;-76
2023/09/12 08:14:22;;;;;;;7.75;3.80;;;38.10;58.00;;;;;;940820;149;26250;-76
2023/09/12 08:16:49;;;;;;;6.42;3.60;;;38.70;57.20;;;;;;925545;152;26209;-76
2023/09/12 08:19:16;;;;;;;9.25;3.27;;;39.20;56.10;;;;;;933847;152;26242;-76
2023/09/12 08:21:42;;;;;;;4.90;3.47;;;39.80;54.30;;;;;;934972;151;26277;-76
2023/09/12 08:24:09;;;;;;;5.53;3.45;;;40.40;53.90;;;;;;932858;151;26878;-76
2023/09/12 08:26:35;;;;;;;5.95;4.12;;;40.90;52.30;;;;;;934264;152;26373;-76
2023/09/12 08:29:02;;;;;;;9.50;4.10;;;41.30;51.30;;;;;;936227;149;26225;-76
2023/09/12 08:31:29;;;;;;;8.78;3.65;;;41.70;50.30;;;;;;932004;151;26341;-76
2023/09/12 08:33:55;;;;;;;4.37;3.98;;;42.00;49.50;;;;;;931348;151;26318;-76
2023/09/12 08:36:22;;;;;;;9.75;3.60;;;42.20;48.50;;;;;;942968;149;26360;-76
2023/09/12 08:38:48;;;;;;;6.00;3.58;;;42.40;47.90;;;;;;947223;149;26298;-76
2023/09/12 08:41:15;;;;;;;6.37;3.83;;;42.50;47.00;;;;;;946877;149;26203;-76
2023/09/12 08:43:41;;;;;;;3.85;3.47;;;42.60;46.60;;;;;;929793;150;26729;-76
2023/09/12 08:46:08;;;;;;;6.15;3.50;;;42.70;46.10;;;;;;928009;150;26284;-76
2023/09/12 08:48:36;;;;;;;5.15;3.27;;;42.80;45.70;;;;;;930092;152;26290;-76
2023/09/12 08:51:03;;;;;;;7.00;4.00;;;42.80;45.50;;;;;;931093;152;26334;-76
2023/09/12 08:53:28;;;;;;;4.67;3.40;;;42.90;45.00;;;;;;931247;150;26244;-76
2023/09/12 08:55:54;;;;;;;6.30;3.35;;;43.00;45.20;;;;;;931385;151;26273;-76
2023/09/12 08:58:21;;;;;;;6.45;3.42;;;43.00;44.30;;;;;;931751;153;26356;-76
2023/09/12 09:00:48;;;;;;;8.73;4.22;;;43.10;43.90;;;;;;949268;149;26720;-76
2023/09/12 09:03:14;;;;;;;4.78;3.80;;;43.20;43.20;;;;;;946494;150;26193;-76
2023/09/12 09:05:41;;;;;;;4.40;3.37;;;43.30;43.00;;;;;;932485;151;26226;-77
2023/09/12 09:08:07;;;;;;;8.48;3.55;;;43.30;42.60;;;;;;930818;152;26331;-76
2023/09/12 09:10:34;;;;;;;5.90;3.50;;;43.20;42.20;;;;;;936202;149;26262;-76
2023/09/12 09:13:01;;;;;;;5.20;3.33;;;43.30;41.80;;;;;;948929;146;26313;-76
2023/09/12 09:15:27;;;;;;;4.75;3.50;;;43.30;41.50;;;;;;953732;146;26216;-76
2023/09/12 09:17:54;;;;;;;4.67;3.70;;;43.20;41.20;;;;;;955700;147;26290;-76
2023/09/12 09:20:23;;;;;;;6.45;3.70;;;43.10;40.70;;;;;;942494;149;26378;-76
2023/09/12 09:22:58;;;;;;;5.45;3.60;;;43.00;40.50;;;;;;930784;150;27741;-76
2023/09/12 09:25:25;;;;;;;6.33;3.33;;;42.80;40.50;;;;;;957336;146;26275;-76
2023/09/12 09:27:51;;;;;;;6.97;3.40;;;42.60;40.40;;;;;;943278;149;26331;-76
2023/09/12 09:30:18;;;;;;;5.75;3.35;;;42.50;40.70;;;;;;939380;151;26330;-76
2023/09/12 09:32:45;;;;;;;5.55;3.70;;;42.30;40.70;;;;;;959790;146;26212;-76
2023/09/12 09:35:11;;;;;;;4.83;3.60;;;42.30;40.90;;;;;;951435;147;26238;-76
2023/09/12 09:37:38;;;;;;;5.50;3.95;;;42.30;41.50;;;;;;933891;151;26285;-76
2023/09/12 09:40:05;;;;;;;5.95;3.98;;;42.30;41.00;;;;;;936193;152;26250;-76
2023/09/12 09:42:31;;;;;;;7.40;3.72;;;42.40;40.70;;;;;;934143;151;26200;-76
2023/09/12 09:44:58;;;;;;;14.60;3.83;;;42.50;40.60;;;;;;935905;151;26291;-76
2023/09/12 09:47:24;;;;;;;4.30;3.50;;;42.40;40.50;;;;;;939078;151;26339;-76
2023/09/12 09:49:51;;;;;;;3.90;3.52;;;42.40;40.30;;;;;;935351;148;26281;-76
2023/09/12 09:52:17;;;;;;;6.47;3.45;;;42.30;39.90;;;;;;934024;149;26323;-76
2023/09/12 09:54:45;;;;;;;3.75;3.33;;;42.20;40.50;;;;;;933311;149;26226;-76
2023/09/12 09:57:11;;;;;;;8.13;3.25;;;42.10;39.60;;;;;;934707;149;26399;-76
2023/09/12 09:59:37;;;;;;;6.55;3.92;;;41.90;39.70;;;;;;949386;146;26260;-76
2023/09/12 10:02:04;;;;;;;5.45;3.50;;;41.80;39.60;;;;;;949250;146;26157;-76
2023/09/12 10:04:30;;;;;;;5.17;3.85;;;41.50;39.60;;;;;;950487;146;26306;-76
2023/09/12 10:06:57;;;;;;;6.00;3.87;;;41.30;39.50;;;;;;933544;148;26262;-76
2023/09/12 10:09:23;;;;;;;6.28;3.50;;;41.20;39.60;;;;;;931449;151;26313;-76
2023/09/12 10:11:50;;;;;;;4.12;3.72;;;40.90;39.60;;;;;;930781;151;26267;-76
2023/09/12 10:14:17;;;;;;;6.92;3.70;;;40.80;39.70;;;;;;930044;151;26266;-76
2023/09/12 10:16:44;;;;;;;9.88;4.33;;;40.50;39.90;;;;;;937739;149;26190;-76
2023/09/12 10:19:13;;;;;;;4.33;3.55;;;40.30;39.70;;;;;;935803;149;26278;-76
2023/09/12 10:21:42;;;;;;;6.80;3.80;;;40.10;39.50;;;;;;948532;146;26152;-76
2023/09/12 10:24:08;;;;;;;6.12;3.87;;;39.80;39.50;;;;;;920892;150;26264;-76
2023/09/12 10:26:35;;;;;;;7.80;4.33;;;39.50;39.70;;;;;;936877;149;26358;-76
2023/09/12 10:29:02;;;;;;;6.17;4.03;;;39.20;39.70;;;;;;938160;149;26366;-76
2023/09/12 10:31:28;;;;;;;4.87;4.00;;;39.00;39.90;;;;;;937023;149;26256;-76
2023/09/12 10:33:55;;;;;;;5.87;3.83;;;38.70;40.00;;;;;;933900;149;26234;-76
2023/09/12 10:36:21;;;;;;;5.37;3.60;;;38.50;40.20;;;;;;936350;149;26268;-76
2023/09/12 10:38:48;;;;;;;7.60;4.10;;;38.30;40.40;;;;;;944103;147;26348;-76
2023/09/12 10:41:15;;;;;;;4.50;3.67;;;38.00;40.40;;;;;;921426;152;26302;-76
2023/09/12 10:43:41;;;;;;;6.53;4.15;;;37.80;40.80;;;;;;956106;146;26289;-76
2023/09/12 10:46:08;;;;;;;6.37;4.40;;;37.50;40.90;;;;;;953411;146;26712;-76
2023/09/12 10:48:39;;;;;;;6.78;3.90;;;37.20;41.00;;;;;;954534;146;27389;-76
2023/09/12 10:51:05;;;;;;;7.80;4.10;;;37.00;41.30;;;;;;950283;146;27359;-76
2023/09/12 10:53:30;;;;;;;6.25;3.70;;;36.70;41.50;;;;;;933220;149;27811;-76
2023/09/12 10:56:00;;;;;;;4.83;4.05;;;36.50;41.80;;;;;;955240;146;26234;-76
2023/09/12 10:58:27;;;;;;;5.42;4.08;;;36.30;42.00;;;;;;948975;148;27898;-76
2023/09/12 11:01:25;;;;;;;5.08;3.90;;;36.10;42.30;;;;;;937814;147;27324;-76
2023/09/12 11:03:51;;;;;;;6.78;3.92;;;36.00;42.60;;;;;;951187;146;27782;-76
2023/09/12 11:06:21;;;;;;;5.33;4.12;;;35.80;42.80;;;;;;953720;146;27310;-76
2023/09/12 11:08:46;;;;;;;5.78;4.08;;;35.70;43.00;;;;;;941606;150;27423;-76
2023/09/12 11:11:22;;;;;;;6.05;4.03;;;35.60;43.20;;;;;;949907;146;27346;-76
2023/09/12 11:13:46;;;;;;;4.78;3.80;;;35.60;43.50;;;;;;955211;146;27387;-76
2023/09/12 11:16:17;;;;;;;5.95;3.92;;;35.50;43.50;;;;;;949313;147;27334;-76
2023/09/12 11:19:15;;;;;;;5.17;3.85;;;35.50;43.30;;;;;;941214;149;27362;-76
2023/09/12 11:21:47;;;;;;;8.28;3.70;;;35.50;43.40;;;;;;927288;151;26329;-76
2023/09/12 11:24:14;;;;;;;6.50;3.62;;;35.40;44.10;;;;;;939873;147;27340;-76
2023/09/12 11:26:59;;;;;;;6.10;4.15;;;35.40;43.80;;;;;;954943;146;26221;-76
2023/09/12 11:29:37;;;;;;;5.37;3.80;;;35.40;43.90;;;;;;937782;149;27354;-76
2023/09/12 11:32:04;;;;;;;6.33;4.17;;;35.30;43.90;;;;;;927781;150;27335;-76
2023/09/12 11:34:32;;;;;;;6.85;3.77;;;35.30;44.00;;;;;;953693;146;27362;-76
2023/09/12 11:36:59;;;;;;;4.58;3.70;;;35.20;43.90;;;;;;935338;149;28792;-80
2023/09/12 11:39:27;;;;;;;5.45;3.90;;;35.20;44.30;;;;;;941269;146;27299;-79
2023/09/12 11:41:51;;;;;;;5.58;3.80;;;35.30;44.30;;;;;;939605;146;27365;-77
2023/09/12 11:44:17;;;;;;;5.55;4.10;;;35.30;44.30;;;;;;934476;149;26679;-80
2023/09/12 11:46:43;;;;;;;6.70;4.05;;;35.40;44.20;;;;;;950536;146;28082;-80
2023/09/12 11:49:10;;;;;;;5.05;3.55;;;35.50;44.70;;;;;;921900;150;26365;-82
2023/09/12 11:51:37;;;;;;;7.90;3.42;;;35.70;44.60;;;;;;949060;146;27437;-80
2023/09/12 11:54:04;;;;;;;4.80;3.58;;;35.80;44.30;;;;;;941912;147;26266;-77
2023/09/12 11:56:31;;;;;;;4.08;3.62;;;35.90;44.20;;;;;;933921;149;27484;-81
2023/09/12 11:58:57;;;;;;;5.45;3.75;;;36.00;44.10;;;;;;937884;149;27387;-81
2023/09/12 12:01:23;;;;;;;5.90;3.58;;;36.00;43.80;;;;;;934097;149;27421;-80
2023/09/12 12:03:52;;;;;;;5.47;3.85;;;36.10;43.60;;;;;;939934;149;26233;-78
2023/09/12 12:06:17;;;;;;;5.50;3.90;;;36.10;43.70;;;;;;931145;151;26664;-80
2023/09/12 12:08:43;;;;;;;4.95;3.65;;;36.20;43.80;;;;;;943585;149;27421;-79
2023/09/12 12:11:10;;;;;;;4.17;3.80;;;36.20;43.70;;;;;;938989;149;26213;-80
2023/09/12 12:13:36;;;;;;;5.97;3.72;;;36.30;43.70;;;;;;943101;151;27399;-79
2023/09/12 12:16:03;;;;;;;7.58;4.00;;;36.30;43.80;;;;;;946751;146;26241;-76
2023/09/12 12:18:29;;;;;;;4.45;3.75;;;36.30;43.70;;;;;;944773;149;27443;-80
2023/09/12 12:20:56;;;;;;;4.53;4.12;;;36.40;43.80;;;;;;934010;149;26260;-80
2023/09/12 12:23:23;;;;;;;4.83;4.08;;;36.40;43.70;;;;;;943519;146;26297;-80
2023/09/12 12:25:49;;;;;;;6.33;3.85;;;36.50;43.80;;;;;;942320;147;26237;-79
2023/09/12 12:28:16;;;;;;;6.83;4.00;;;36.50;44.00;;;;;;943314;147;26271;-79
2023/09/12 12:30:42;;;;;;;4.62;4.12;;;36.50;43.90;;;;;;936087;149;27972;-81
2023/09/12 12:33:09;;;;;;;6.67;4.40;;;36.50;43.80;;;;;;934665;148;26257;-80
2023/09/12 12:35:36;;;;;;;7.15;4.28;;;36.50;43.70;;;;;;935527;148;27840;-79
2023/09/12 12:38:02;;;;;;;9.28;5.17;;;36.50;43.60;;;;;;948985;146;26327;-76
2023/09/12 12:40:29;;;;;;;8.55;4.78;;;36.50;43.60;;;;;;951992;146;26240;-80
2023/09/12 12:42:55;;;;;;;4.70;3.85;;;36.50;43.50;;;;;;935623;149;26389;-80
2023/09/12 12:45:23;;;;;;;6.20;4.25;;;36.40;43.60;;;;;;931707;149;26247;-80